Airfield :







YOU CAN JOIN US ON...

 
LOGIN :

Register | Disclaimer

   EN    FR    IT 

 









Legend :    VFR   Marginal VFR   IFR   Intensive IFR   Very Intensive IFR
Visi :
Ceiling :
>= 8 km
>= 3000ft
5 to 8 km
1000 to 3000 ft
1500m to 5 km
500 to 1000 ft
800 to 1500m
200 to 500 ft
< 800m
< 200 ft
Symbols :   Thunderstorms  Fog  Heavy snow  Heavy precipitations  Wind > 20 kt






- Airport Elevation : 171 ft
- IATA code : KEF


BIKF - Keflavik International

CURRENT METAR :
  • 171330Z 03019KT CAVOK 03/M00 Q0978

EXPIRED METARs :
  • 171300Z 03020KT CAVOK 03/M01 Q0977
  • 171230Z 03017KT CAVOK 03/M00 Q0977
  • 171200Z 03016KT CAVOK 03/M00 Q0976
  • 171130Z 02013KT 9999 FEW023 SCT070 BKN200 03/M01 Q0976
  • 171100Z 02014KT 9999 FEW028 SCT036 BKN070 03/M00 Q0975

TAF TAF BIKF
Valid from the 17 at 12:00 until the 18 at 12:00 UTC


171037Z 1712/1812 03020KT 9999 FEW020 SCT035 TX04/1715Z TNM02/1806Z
BECMG 1720/1722 04008KT



MET'MAP, your aeronautical weather chart ! - Copyright ORBIFLY December 2007 - Disclaimer

ORBIFLY MET'MAP TEAM :

Programming & Development : Alexandra Zaïnal
Concept & original design : Baudouin d'Aumeries
Assistance for programming : Marc-Olivier Méhu
Technical & hardware support : Manuel Goepfert

Contact : metmap@orbifly.com




SOURCES & CREDITS :

   NOAA